sensor_id;sensor_type;location;lat;lon;timestamp;temperature;humidity
47382;DHT22;33128;51.580;5.170;2023-05-07T00:02:25;14.30;99.90
47382;DHT22;33128;51.580;5.170;2023-05-07T00:04:51;14.30;99.90
47382;DHT22;33128;51.580;5.170;2023-05-07T00:07:19;14.30;99.90
47382;DHT22;33128;51.580;5.170;2023-05-07T00:09:45;14.30;99.90
47382;DHT22;33128;51.580;5.170;2023-05-07T00:12:10;14.30;99.90
47382;DHT22;33128;51.580;5.170;2023-05-07T00:14:36;14.30;99.90
47382;DHT22;33128;51.580;5.170;2023-05-07T00:17:02;14.20;99.90
47382;DHT22;33128;51.580;5.170;2023-05-07T00:19:27;14.30;99.90
47382;DHT22;33128;51.580;5.170;2023-05-07T00:21:53;14.30;99.90
47382;DHT22;33128;51.580;5.170;2023-05-07T00:24:19;14.30;99.90
47382;DHT22;33128;51.580;5.170;2023-05-07T00:26:45;14.30;99.90
47382;DHT22;33128;51.580;5.170;2023-05-07T00:29:10;14.30;99.90
47382;DHT22;33128;51.580;5.170;2023-05-07T00:31:36;14.20;99.90
47382;DHT22;33128;51.580;5.170;2023-05-07T00:34:02;14.20;99.90
47382;DHT22;33128;51.580;5.170;2023-05-07T00:36:27;14.20;99.90
47382;DHT22;33128;51.580;5.170;2023-05-07T00:38:54;14.20;99.90
47382;DHT22;33128;51.580;5.170;2023-05-07T00:41:20;14.20;99.90
47382;DHT22;33128;51.580;5.170;2023-05-07T00:43:46;14.20;99.90
47382;DHT22;33128;51.580;5.170;2023-05-07T00:46:13;14.20;99.90
47382;DHT22;33128;51.580;5.170;2023-05-07T00:48:40;14.30;99.90
47382;DHT22;33128;51.580;5.170;2023-05-07T00:51:06;14.20;99.90
47382;DHT22;33128;51.580;5.170;2023-05-07T00:53:32;14.30;99.90
47382;DHT22;33128;51.580;5.170;2023-05-07T00:55:58;14.30;99.90
47382;DHT22;33128;51.580;5.170;2023-05-07T00:58:23;14.30;99.90
47382;DHT22;33128;51.580;5.170;2023-05-07T01:00:50;14.30;99.90
47382;DHT22;33128;51.580;5.170;2023-05-07T01:03:15;14.40;99.90
47382;DHT22;33128;51.580;5.170;2023-05-07T01:05:48;14.30;99.90
47382;DHT22;33128;51.580;5.170;2023-05-07T01:08:16;14.30;99.90
47382;DHT22;33128;51.580;5.170;2023-05-07T01:10:43;14.30;99.90
47382;DHT22;33128;51.580;5.170;2023-05-07T01:13:10;14.30;99.90
47382;DHT22;33128;51.580;5.170;2023-05-07T01:15:37;14.40;99.90
47382;DHT22;33128;51.580;5.170;2023-05-07T01:18:03;14.30;99.90
47382;DHT22;33128;51.580;5.170;2023-05-07T01:20:29;14.30;99.90
47382;DHT22;33128;51.580;5.170;2023-05-07T01:22:56;14.20;99.90
47382;DHT22;33128;51.580;5.170;2023-05-07T01:25:22;14.20;99.90
47382;DHT22;33128;51.580;5.170;2023-05-07T01:27:48;14.10;99.90
47382;DHT22;33128;51.580;5.170;2023-05-07T01:30:14;14.20;99.90
47382;DHT22;33128;51.580;5.170;2023-05-07T01:32:45;14.10;99.90
47382;DHT22;33128;51.580;5.170;2023-05-07T01:35:17;14.20;99.90
47382;DHT22;33128;51.580;5.170;2023-05-07T01:37:43;14.20;99.90
47382;DHT22;33128;51.580;5.170;2023-05-07T01:40:10;14.20;99.90
47382;DHT22;33128;51.580;5.170;2023-05-07T01:42:36;14.20;99.90
47382;DHT22;33128;51.580;5.170;2023-05-07T01:45:02;14.10;99.90
47382;DHT22;33128;51.580;5.170;2023-05-07T01:47:29;14.10;99.90
47382;DHT22;33128;51.580;5.170;2023-05-07T01:49:55;14.00;99.90
47382;DHT22;33128;51.580;5.170;2023-05-07T01:52:21;14.00;99.90
47382;DHT22;33128;51.580;5.170;2023-05-07T01:54:47;14.00;99.90
47382;DHT22;33128;51.580;5.170;2023-05-07T01:57:12;14.00;99.90
47382;DHT22;33128;51.580;5.170;2023-05-07T01:59:38;13.90;99.90
47382;DHT22;33128;51.580;5.170;2023-05-07T02:02:03;13.90;99.90
47382;DHT22;33128;51.580;5.170;2023-05-07T02:04:29;13.90;99.90
47382;DHT22;33128;51.580;5.170;2023-05-07T02:06:55;13.90;99.90
47382;DHT22;33128;51.580;5.170;2023-05-07T02:09:21;13.90;99.90
47382;DHT22;33128;51.580;5.170;2023-05-07T02:11:48;13.90;99.90
47382;DHT22;33128;51.580;5.170;2023-05-07T02:14:13;13.80;99.90
47382;DHT22;33128;51.580;5.170;2023-05-07T02:16:39;13.80;99.90
47382;DHT22;33128;51.580;5.170;2023-05-07T02:19:05;13.80;99.90
47382;DHT22;33128;51.580;5.170;2023-05-07T02:21:30;13.80;99.90
47382;DHT22;33128;51.580;5.170;2023-05-07T02:23:56;13.80;99.90
47382;DHT22;33128;51.580;5.170;2023-05-07T02:26:23;13.80;99.90
47382;DHT22;33128;51.580;5.170;2023-05-07T02:28:49;13.80;99.90
47382;DHT22;33128;51.580;5.170;2023-05-07T02:31:14;13.80;99.90
47382;DHT22;33128;51.580;5.170;2023-05-07T02:33:40;13.80;99.90
47382;DHT22;33128;51.580;5.170;2023-05-07T02:36:10;13.80;99.90
47382;DHT22;33128;51.580;5.170;2023-05-07T02:38:39;13.80;99.90
47382;DHT22;33128;51.580;5.170;2023-05-07T02:41:04;13.70;99.90
47382;DHT22;33128;51.580;5.170;2023-05-07T02:43:30;13.80;99.90
47382;DHT22;33128;51.580;5.170;2023-05-07T02:46:06;13.70;99.90
47382;DHT22;33128;51.580;5.170;2023-05-07T02:48:32;13.70;99.90
47382;DHT22;33128;51.580;5.170;2023-05-07T02:50:58;13.70;99.90
47382;DHT22;33128;51.580;5.170;2023-05-07T02:53:23;13.90;99.90
47382;DHT22;33128;51.580;5.170;2023-05-07T02:55:54;13.90;99.90
47382;DHT22;33128;51.580;5.170;2023-05-07T02:58:20;13.90;99.90
47382;DHT22;33128;51.580;5.170;2023-05-07T03:00:46;13.90;99.90
47382;DHT22;33128;51.580;5.170;2023-05-07T03:03:11;13.80;99.90
47382;DHT22;33128;51.580;5.170;2023-05-07T03:05:37;13.90;99.90
47382;DHT22;33128;51.580;5.170;2023-05-07T03:08:02;13.80;99.90
47382;DHT22;33128;51.580;5.170;2023-05-07T03:10:29;13.80;99.90
47382;DHT22;33128;51.580;5.170;2023-05-07T03:12:55;13.80;99.90
47382;DHT22;33128;51.580;5.170;2023-05-07T03:15:23;13.80;99.90
47382;DHT22;33128;51.580;5.170;2023-05-07T03:17:48;13.70;99.90
47382;DHT22;33128;51.580;5.170;2023-05-07T03:20:14;13.70;99.90
47382;DHT22;33128;51.580;5.170;2023-05-07T03:22:40;13.80;99.90
47382;DHT22;33128;51.580;5.170;2023-05-07T03:25:06;13.80;99.90
47382;DHT22;33128;51.580;5.170;2023-05-07T03:27:32;13.80;99.90
47382;DHT22;33128;51.580;5.170;2023-05-07T03:29:57;13.80;99.90
47382;DHT22;33128;51.580;5.170;2023-05-07T03:32:23;13.70;99.90
47382;DHT22;33128;51.580;5.170;2023-05-07T03:34:48;13.60;99.90
47382;DHT22;33128;51.580;5.170;2023-05-07T03:37:14;13.70;99.90
47382;DHT22;33128;51.580;5.170;2023-05-07T03:39:39;13.70;99.90
47382;DHT22;33128;51.580;5.170;2023-05-07T03:42:05;13.70;99.90
47382;DHT22;33128;51.580;5.170;2023-05-07T03:44:30;13.60;99.90
47382;DHT22;33128;51.580;5.170;2023-05-07T03:46:56;13.60;99.90
47382;DHT22;33128;51.580;5.170;2023-05-07T03:49:21;13.50;99.90
47382;DHT22;33128;51.580;5.170;2023-05-07T03:51:47;13.50;99.90
47382;DHT22;33128;51.580;5.170;2023-05-07T03:54:13;13.50;99.90
47382;DHT22;33128;51.580;5.170;2023-05-07T03:56:38;13.50;99.90
47382;DHT22;33128;51.580;5.170;2023-05-07T03:59:05;13.50;99.90
47382;DHT22;33128;51.580;5.170;2023-05-07T04:01:31;13.60;99.90
47382;DHT22;33128;51.580;5.170;2023-05-07T04:03:59;13.60;99.90
47382;DHT22;33128;51.580;5.170;2023-05-07T04:06:25;13.60;99.90
47382;DHT22;33128;51.580;5.170;2023-05-07T04:08:50;13.50;99.90
47382;DHT22;33128;51.580;5.170;2023-05-07T04:11:16;13.50;99.90
47382;DHT22;33128;51.580;5.170;2023-05-07T04:13:41;13.50;99.90
47382;DHT22;33128;51.580;5.170;2023-05-07T04:16:07;13.50;99.90
47382;DHT22;33128;51.580;5.170;2023-05-07T04:18:33;13.60;99.90
47382;DHT22;33128;51.580;5.170;2023-05-07T04:20:58;13.60;99.90
47382;DHT22;33128;51.580;5.170;2023-05-07T04:23:33;13.50;99.90
47382;DHT22;33128;51.580;5.170;2023-05-07T04:25:59;13.50;99.90
47382;DHT22;33128;51.580;5.170;2023-05-07T04:28:24;13.50;99.90
47382;DHT22;33128;51.580;5.170;2023-05-07T04:30:51;13.50;99.90
47382;DHT22;33128;51.580;5.170;2023-05-07T04:33:16;13.70;99.90
47382;DHT22;33128;51.580;5.170;2023-05-07T04:35:42;13.60;99.90
47382;DHT22;33128;51.580;5.170;2023-05-07T04:38:14;13.60;99.90
47382;DHT22;33128;51.580;5.170;2023-05-07T04:40:49;13.70;99.90
47382;DHT22;33128;51.580;5.170;2023-05-07T04:43:14;13.70;99.90
47382;DHT22;33128;51.580;5.170;2023-05-07T04:45:41;13.80;99.90
47382;DHT22;33128;51.580;5.170;2023-05-07T04:48:08;13.80;99.90
47382;DHT22;33128;51.580;5.170;2023-05-07T04:50:34;13.90;99.90
47382;DHT22;33128;51.580;5.170;2023-05-07T04:53:00;13.90;99.90
47382;DHT22;33128;51.580;5.170;2023-05-07T04:55:26;14.00;99.90
47382;DHT22;33128;51.580;5.170;2023-05-07T04:57:52;14.10;99.90
47382;DHT22;33128;51.580;5.170;2023-05-07T05:00:18;14.10;99.90
47382;DHT22;33128;51.580;5.170;2023-05-07T05:02:45;14.20;99.90
47382;DHT22;33128;51.580;5.170;2023-05-07T05:05:11;14.20;99.90
47382;DHT22;33128;51.580;5.170;2023-05-07T05:07:36;14.20;99.90
47382;DHT22;33128;51.580;5.170;2023-05-07T05:10:02;14.30;99.90
47382;DHT22;33128;51.580;5.170;2023-05-07T05:12:29;14.30;99.90
47382;DHT22;33128;51.580;5.170;2023-05-07T05:14:57;14.40;99.90
47382;DHT22;33128;51.580;5.170;2023-05-07T05:17:22;14.50;99.90
47382;DHT22;33128;51.580;5.170;2023-05-07T05:19:48;14.50;99.90
47382;DHT22;33128;51.580;5.170;2023-05-07T05:22:14;14.50;99.90
47382;DHT22;33128;51.580;5.170;2023-05-07T05:24:39;14.50;99.90
47382;DHT22;33128;51.580;5.170;2023-05-07T05:27:05;14.50;99.90
47382;DHT22;33128;51.580;5.170;2023-05-07T05:29:31;14.50;99.90
47382;DHT22;33128;51.580;5.170;2023-05-07T05:31:59;14.50;99.90
47382;DHT22;33128;51.580;5.170;2023-05-07T05:34:25;14.50;99.90
47382;DHT22;33128;51.580;5.170;2023-05-07T05:36:51;14.60;99.90
47382;DHT22;33128;51.580;5.170;2023-05-07T05:39:16;14.60;99.90
47382;DHT22;33128;51.580;5.170;2023-05-07T05:41:42;14.70;99.90
47382;DHT22;33128;51.580;5.170;2023-05-07T05:44:08;14.80;99.90
47382;DHT22;33128;51.580;5.170;2023-05-07T05:46:34;14.80;99.90
47382;DHT22;33128;51.580;5.170;2023-05-07T05:49:00;14.80;99.90
47382;DHT22;33128;51.580;5.170;2023-05-07T05:51:25;14.90;99.90
47382;DHT22;33128;51.580;5.170;2023-05-07T05:53:51;15.00;99.90
47382;DHT22;33128;51.580;5.170;2023-05-07T05:56:17;15.00;99.90
47382;DHT22;33128;51.580;5.170;2023-05-07T05:58:43;15.10;99.90
47382;DHT22;33128;51.580;5.170;2023-05-07T06:01:08;15.10;99.90
47382;DHT22;33128;51.580;5.170;2023-05-07T06:03:34;15.20;99.90
47382;DHT22;33128;51.580;5.170;2023-05-07T06:06:00;15.20;99.90
47382;DHT22;33128;51.580;5.170;2023-05-07T06:08:28;15.20;99.90
47382;DHT22;33128;51.580;5.170;2023-05-07T06:10:54;15.30;99.90
47382;DHT22;33128;51.580;5.170;2023-05-07T06:13:20;15.40;99.90
47382;DHT22;33128;51.580;5.170;2023-05-07T06:15:46;15.50;99.90
47382;DHT22;33128;51.580;5.170;2023-05-07T06:18:11;15.40;99.90
47382;DHT22;33128;51.580;5.170;2023-05-07T06:20:37;15.40;99.90
47382;DHT22;33128;51.580;5.170;2023-05-07T06:23:02;15.50;99.90
47382;DHT22;33128;51.580;5.170;2023-05-07T06:25:28;15.40;99.90
47382;DHT22;33128;51.580;5.170;2023-05-07T06:27:53;15.40;99.90
47382;DHT22;33128;51.580;5.170;2023-05-07T06:30:19;15.40;99.90
47382;DHT22;33128;51.580;5.170;2023-05-07T06:32:44;15.40;99.90
47382;DHT22;33128;51.580;5.170;2023-05-07T06:35:10;15.50;99.90
47382;DHT22;33128;51.580;5.170;2023-05-07T06:37:36;15.50;99.90
47382;DHT22;33128;51.580;5.170;2023-05-07T06:40:04;15.50;99.90
47382;DHT22;33128;51.580;5.170;2023-05-07T06:42:30;15.70;99.90
47382;DHT22;33128;51.580;5.170;2023-05-07T06:44:56;16.00;99.90
47382;DHT22;33128;51.580;5.170;2023-05-07T06:47:21;16.30;99.90
47382;DHT22;33128;51.580;5.170;2023-05-07T06:49:47;16.50;99.90
47382;DHT22;33128;51.580;5.170;2023-05-07T06:52:12;16.60;99.90
47382;DHT22;33128;51.580;5.170;2023-05-07T06:54:38;16.60;99.90
47382;DHT22;33128;51.580;5.170;2023-05-07T06:57:03;16.70;99.90
47382;DHT22;33128;51.580;5.170;2023-05-07T06:59:29;16.80;99.90
47382;DHT22;33128;51.580;5.170;2023-05-07T07:01:54;16.80;99.90
47382;DHT22;33128;51.580;5.170;2023-05-07T07:04:20;16.90;99.90
47382;DHT22;33128;51.580;5.170;2023-05-07T07:06:47;16.90;99.90
47382;DHT22;33128;51.580;5.170;2023-05-07T07:09:13;17.00;99.90
47382;DHT22;33128;51.580;5.170;2023-05-07T07:11:38;17.10;99.90
47382;DHT22;33128;51.580;5.170;2023-05-07T07:14:04;17.20;99.90
47382;DHT22;33128;51.580;5.170;2023-05-07T07:16:30;17.20;99.90
47382;DHT22;33128;51.580;5.170;2023-05-07T07:18:55;17.30;99.90
47382;DHT22;33128;51.580;5.170;2023-05-07T07:21:21;17.30;99.90
47382;DHT22;33128;51.580;5.170;2023-05-07T07:23:46;17.30;99.90
47382;DHT22;33128;51.580;5.170;2023-05-07T07:26:12;17.40;99.90
47382;DHT22;33128;51.580;5.170;2023-05-07T07:28:44;17.40;99.90
47382;DHT22;33128;51.580;5.170;2023-05-07T07:31:09;17.50;99.90
47382;DHT22;33128;51.580;5.170;2023-05-07T07:33:35;17.50;99.90
47382;DHT22;33128;51.580;5.170;2023-05-07T07:36:04;17.60;99.90
47382;DHT22;33128;51.580;5.170;2023-05-07T07:38:30;17.60;99.90
47382;DHT22;33128;51.580;5.170;2023-05-07T07:40:56;17.60;99.90
47382;DHT22;33128;51.580;5.170;2023-05-07T07:43:21;17.70;99.90
47382;DHT22;33128;51.580;5.170;2023-05-07T07:45:47;17.70;99.90
47382;DHT22;33128;51.580;5.170;2023-05-07T07:48:12;17.80;99.90
47382;DHT22;33128;51.580;5.170;2023-05-07T07:50:38;17.80;99.90
47382;DHT22;33128;51.580;5.170;2023-05-07T07:53:03;17.90;99.90
47382;DHT22;33128;51.580;5.170;2023-05-07T07:55:29;17.90;99.90
47382;DHT22;33128;51.580;5.170;2023-05-07T07:57:56;17.90;99.90
47382;DHT22;33128;51.580;5.170;2023-05-07T08:00:21;18.00;99.90
47382;DHT22;33128;51.580;5.170;2023-05-07T08:02:47;18.00;99.90
47382;DHT22;33128;51.580;5.170;2023-05-07T08:05:12;18.00;99.90
47382;DHT22;33128;51.580;5.170;2023-05-07T08:07:38;18.10;99.90
47382;DHT22;33128;51.580;5.170;2023-05-07T08:10:04;18.10;99.90
47382;DHT22;33128;51.580;5.170;2023-05-07T08:12:30;18.10;99.90
47382;DHT22;33128;51.580;5.170;2023-05-07T08:14:55;18.20;99.90
47382;DHT22;33128;51.580;5.170;2023-05-07T08:17:21;18.20;99.90
47382;DHT22;33128;51.580;5.170;2023-05-07T08:19:47;18.20;99.90
47382;DHT22;33128;51.580;5.170;2023-05-07T08:22:13;18.30;99.90
47382;DHT22;33128;51.580;5.170;2023-05-07T08:24:39;18.30;99.90
47382;DHT22;33128;51.580;5.170;2023-05-07T08:27:05;18.30;99.90
47382;DHT22;33128;51.580;5.170;2023-05-07T08:29:30;18.30;99.90
47382;DHT22;33128;51.580;5.170;2023-05-07T08:31:56;18.40;99.90
47382;DHT22;33128;51.580;5.170;2023-05-07T08:34:22;18.40;99.90
47382;DHT22;33128;51.580;5.170;2023-05-07T08:36:47;18.40;99.90
47382;DHT22;33128;51.580;5.170;2023-05-07T08:39:15;18.50;99.90
47382;DHT22;33128;51.580;5.170;2023-05-07T08:41:40;18.50;99.90
47382;DHT22;33128;51.580;5.170;2023-05-07T08:44:11;18.50;99.90
47382;DHT22;33128;51.580;5.170;2023-05-07T08:46:37;18.60;99.90
47382;DHT22;33128;51.580;5.170;2023-05-07T08:49:02;18.60;99.90
47382;DHT22;33128;51.580;5.170;2023-05-07T08:51:28;18.70;99.90
47382;DHT22;33128;51.580;5.170;2023-05-07T08:53:54;18.70;99.90
47382;DHT22;33128;51.580;5.170;2023-05-07T08:56:20;18.80;99.90
47382;DHT22;33128;51.580;5.170;2023-05-07T08:58:46;18.80;99.90
47382;DHT22;33128;51.580;5.170;2023-05-07T09:01:13;18.80;99.90
47382;DHT22;33128;51.580;5.170;2023-05-07T09:03:38;18.90;99.90
47382;DHT22;33128;51.580;5.170;2023-05-07T09:06:04;18.90;99.90
47382;DHT22;33128;51.580;5.170;2023-05-07T09:08:32;18.90;99.90
47382;DHT22;33128;51.580;5.170;2023-05-07T09:10:57;18.90;99.90
47382;DHT22;33128;51.580;5.170;2023-05-07T09:13:23;19.00;99.90
47382;DHT22;33128;51.580;5.170;2023-05-07T09:15:48;18.90;99.90
47382;DHT22;33128;51.580;5.170;2023-05-07T09:18:14;19.00;99.90
47382;DHT22;33128;51.580;5.170;2023-05-07T09:20:39;19.00;99.90
47382;DHT22;33128;51.580;5.170;2023-05-07T09:23:06;19.10;99.90
47382;DHT22;33128;51.580;5.170;2023-05-07T09:25:35;19.10;99.90
47382;DHT22;33128;51.580;5.170;2023-05-07T09:28:02;19.20;99.90
47382;DHT22;33128;51.580;5.170;2023-05-07T09:30:31;19.20;99.90
47382;DHT22;33128;51.580;5.170;2023-05-07T09:33:00;19.20;99.90
47382;DHT22;33128;51.580;5.170;2023-05-07T09:35:26;19.20;99.90
47382;DHT22;33128;51.580;5.170;2023-05-07T09:37:58;19.20;99.90
47382;DHT22;33128;51.580;5.170;2023-05-07T09:40:24;19.30;99.90
47382;DHT22;33128;51.580;5.170;2023-05-07T09:42:50;19.30;99.90
47382;DHT22;33128;51.580;5.170;2023-05-07T09:45:16;19.30;99.90
47382;DHT22;33128;51.580;5.170;2023-05-07T09:47:42;19.30;99.90
47382;DHT22;33128;51.580;5.170;2023-05-07T09:50:09;19.30;99.90
47382;DHT22;33128;51.580;5.170;2023-05-07T09:52:35;19.30;99.90
47382;DHT22;33128;51.580;5.170;2023-05-07T09:55:02;19.30;99.90
47382;DHT22;33128;51.580;5.170;2023-05-07T09:57:28;19.40;99.90
47382;DHT22;33128;51.580;5.170;2023-05-07T09:59:54;19.40;99.90
47382;DHT22;33128;51.580;5.170;2023-05-07T10:02:21;19.40;99.90
47382;DHT22;33128;51.580;5.170;2023-05-07T10:04:46;19.40;99.90
47382;DHT22;33128;51.580;5.170;2023-05-07T10:07:13;19.50;99.90
47382;DHT22;33128;51.580;5.170;2023-05-07T10:09:39;19.50;99.90
47382;DHT22;33128;51.580;5.170;2023-05-07T10:12:07;19.50;99.90
47382;DHT22;33128;51.580;5.170;2023-05-07T10:14:32;19.50;99.90
47382;DHT22;33128;51.580;5.170;2023-05-07T10:17:02;19.50;99.90
47382;DHT22;33128;51.580;5.170;2023-05-07T10:19:27;19.50;99.90
47382;DHT22;33128;51.580;5.170;2023-05-07T10:21:55;19.60;99.90
47382;DHT22;33128;51.580;5.170;2023-05-07T10:24:25;19.60;99.90
47382;DHT22;33128;51.580;5.170;2023-05-07T10:26:51;19.60;99.90
47382;DHT22;33128;51.580;5.170;2023-05-07T10:29:18;19.70;99.90
47382;DHT22;33128;51.580;5.170;2023-05-07T10:34:12;19.80;99.90
47382;DHT22;33128;51.580;5.170;2023-05-07T10:36:40;19.80;99.90
47382;DHT22;33128;51.580;5.170;2023-05-07T10:39:05;19.90;99.90
47382;DHT22;33128;51.580;5.170;2023-05-07T10:41:31;19.90;99.90
47382;DHT22;33128;51.580;5.170;2023-05-07T10:43:57;19.90;99.90
47382;DHT22;33128;51.580;5.170;2023-05-07T10:46:22;19.90;99.90
47382;DHT22;33128;51.580;5.170;2023-05-07T10:51:26;20.00;99.90
47382;DHT22;33128;51.580;5.170;2023-05-07T10:56:40;20.00;99.90
47382;DHT22;33128;51.580;5.170;2023-05-07T11:04:15;20.00;99.90
47382;DHT22;33128;51.580;5.170;2023-05-07T11:06:40;20.10;99.90
47382;DHT22;33128;51.580;5.170;2023-05-07T11:09:06;20.10;99.90
47382;DHT22;33128;51.580;5.170;2023-05-07T11:11:44;20.10;99.90
47382;DHT22;33128;51.580;5.170;2023-05-07T11:14:10;20.10;99.90
47382;DHT22;33128;51.580;5.170;2023-05-07T11:16:36;20.10;99.90
47382;DHT22;33128;51.580;5.170;2023-05-07T11:19:03;20.10;99.90
47382;DHT22;33128;51.580;5.170;2023-05-07T11:23:57;20.10;99.90
47382;DHT22;33128;51.580;5.170;2023-05-07T11:26:24;20.20;99.90
47382;DHT22;33128;51.580;5.170;2023-05-07T11:28:50;20.20;99.90
47382;DHT22;33128;51.580;5.170;2023-05-07T11:31:17;20.20;99.90
47382;DHT22;33128;51.580;5.170;2023-05-07T11:33:45;20.20;99.90
47382;DHT22;33128;51.580;5.170;2023-05-07T11:36:11;20.20;99.90
47382;DHT22;33128;51.580;5.170;2023-05-07T11:38:37;20.30;99.90
47382;DHT22;33128;51.580;5.170;2023-05-07T11:41:02;20.30;99.90
47382;DHT22;33128;51.580;5.170;2023-05-07T11:43:30;20.30;99.90
47382;DHT22;33128;51.580;5.170;2023-05-07T11:46:04;20.30;99.90
47382;DHT22;33128;51.580;5.170;2023-05-07T11:48:30;20.30;99.90
47382;DHT22;33128;51.580;5.170;2023-05-07T11:53:27;20.30;99.90
47382;DHT22;33128;51.580;5.170;2023-05-07T11:55:53;20.30;99.90
47382;DHT22;33128;51.580;5.170;2023-05-07T11:58:22;20.40;99.90
47382;DHT22;33128;51.580;5.170;2023-05-07T12:00:51;20.40;99.90
47382;DHT22;33128;51.580;5.170;2023-05-07T12:03:17;20.40;99.90
47382;DHT22;33128;51.580;5.170;2023-05-07T12:05:46;20.40;99.90
47382;DHT22;33128;51.580;5.170;2023-05-07T12:08:18;20.30;99.90
47382;DHT22;33128;51.580;5.170;2023-05-07T12:10:45;20.30;99.90
47382;DHT22;33128;51.580;5.170;2023-05-07T12:13:17;20.30;99.90
47382;DHT22;33128;51.580;5.170;2023-05-07T12:15:43;20.30;99.90
47382;DHT22;33128;51.580;5.170;2023-05-07T12:18:09;20.30;99.90
47382;DHT22;33128;51.580;5.170;2023-05-07T12:20:35;20.30;99.90
47382;DHT22;33128;51.580;5.170;2023-05-07T12:23:01;20.20;99.90
47382;DHT22;33128;51.580;5.170;2023-05-07T12:25:30;20.20;99.90
47382;DHT22;33128;51.580;5.170;2023-05-07T12:27:55;20.20;99.90
47382;DHT22;33128;51.580;5.170;2023-05-07T12:30:24;20.20;99.90
47382;DHT22;33128;51.580;5.170;2023-05-07T12:32:52;20.20;99.90
47382;DHT22;33128;51.580;5.170;2023-05-07T12:35:25;20.20;99.90
47382;DHT22;33128;51.580;5.170;2023-05-07T12:37:54;20.20;99.90
47382;DHT22;33128;51.580;5.170;2023-05-07T12:40:20;20.20;99.90
47382;DHT22;33128;51.580;5.170;2023-05-07T12:42:45;20.20;99.90
47382;DHT22;33128;51.580;5.170;2023-05-07T12:45:11;20.20;99.90
47382;DHT22;33128;51.580;5.170;2023-05-07T12:47:37;20.20;99.90
47382;DHT22;33128;51.580;5.170;2023-05-07T12:50:04;20.20;99.90
47382;DHT22;33128;51.580;5.170;2023-05-07T12:52:30;20.20;99.90
47382;DHT22;33128;51.580;5.170;2023-05-07T12:54:56;20.20;99.90
47382;DHT22;33128;51.580;5.170;2023-05-07T12:57:22;20.20;99.90
47382;DHT22;33128;51.580;5.170;2023-05-07T12:59:47;20.20;99.90
47382;DHT22;33128;51.580;5.170;2023-05-07T13:02:13;20.20;99.90
47382;DHT22;33128;51.580;5.170;2023-05-07T13:04:41;20.20;99.90
47382;DHT22;33128;51.580;5.170;2023-05-07T13:07:07;20.20;99.90
47382;DHT22;33128;51.580;5.170;2023-05-07T13:09:32;20.20;99.90
47382;DHT22;33128;51.580;5.170;2023-05-07T13:11:58;20.20;99.90
47382;DHT22;33128;51.580;5.170;2023-05-07T13:14:26;20.20;99.90
47382;DHT22;33128;51.580;5.170;2023-05-07T13:16:52;20.20;99.90
47382;DHT22;33128;51.580;5.170;2023-05-07T13:19:17;20.20;99.90
47382;DHT22;33128;51.580;5.170;2023-05-07T13:21:43;20.30;99.90
47382;DHT22;33128;51.580;5.170;2023-05-07T13:24:09;20.20;99.90
47382;DHT22;33128;51.580;5.170;2023-05-07T13:26:36;20.20;99.90
47382;DHT22;33128;51.580;5.170;2023-05-07T13:29:02;20.10;99.90
47382;DHT22;33128;51.580;5.170;2023-05-07T13:31:27;20.10;99.90
47382;DHT22;33128;51.580;5.170;2023-05-07T13:33:58;20.10;99.90
47382;DHT22;33128;51.580;5.170;2023-05-07T13:36:24;20.10;99.90
47382;DHT22;33128;51.580;5.170;2023-05-07T13:38:50;20.00;99.90
47382;DHT22;33128;51.580;5.170;2023-05-07T13:41:15;20.00;99.90
47382;DHT22;33128;51.580;5.170;2023-05-07T13:43:41;20.00;99.90
47382;DHT22;33128;51.580;5.170;2023-05-07T13:46:06;20.10;99.90
47382;DHT22;33128;51.580;5.170;2023-05-07T13:48:32;20.10;99.90
47382;DHT22;33128;51.580;5.170;2023-05-07T13:50:57;20.10;99.90
47382;DHT22;33128;51.580;5.170;2023-05-07T13:53:23;20.10;99.90
47382;DHT22;33128;51.580;5.170;2023-05-07T13:55:48;20.20;99.90
47382;DHT22;33128;51.580;5.170;2023-05-07T13:58:14;20.30;99.90
47382;DHT22;33128;51.580;5.170;2023-05-07T14:00:40;20.30;99.90
47382;DHT22;33128;51.580;5.170;2023-05-07T14:03:06;20.50;99.90
47382;DHT22;33128;51.580;5.170;2023-05-07T14:05:31;20.50;99.90
47382;DHT22;33128;51.580;5.170;2023-05-07T14:07:57;20.70;99.90
47382;DHT22;33128;51.580;5.170;2023-05-07T14:10:23;20.80;99.90
47382;DHT22;33128;51.580;5.170;2023-05-07T14:12:49;20.90;99.90
47382;DHT22;33128;51.580;5.170;2023-05-07T14:15:15;20.90;99.90
47382;DHT22;33128;51.580;5.170;2023-05-07T14:17:41;21.00;99.90
47382;DHT22;33128;51.580;5.170;2023-05-07T14:20:07;21.00;99.90
47382;DHT22;33128;51.580;5.170;2023-05-07T14:22:32;20.90;99.90
47382;DHT22;33128;51.580;5.170;2023-05-07T14:24:58;20.90;99.90
47382;DHT22;33128;51.580;5.170;2023-05-07T14:27:23;21.00;99.90
47382;DHT22;33128;51.580;5.170;2023-05-07T14:29:52;20.90;99.90
47382;DHT22;33128;51.580;5.170;2023-05-07T14:32:21;21.00;99.90
47382;DHT22;33128;51.580;5.170;2023-05-07T14:34:46;21.00;99.90
47382;DHT22;33128;51.580;5.170;2023-05-07T14:37:12;21.00;99.90
47382;DHT22;33128;51.580;5.170;2023-05-07T14:39:37;20.90;99.90
47382;DHT22;33128;51.580;5.170;2023-05-07T14:42:06;20.90;99.90
47382;DHT22;33128;51.580;5.170;2023-05-07T14:44:34;20.80;99.90
47382;DHT22;33128;51.580;5.170;2023-05-07T14:46:59;20.80;99.90
47382;DHT22;33128;51.580;5.170;2023-05-07T14:49:25;20.80;99.90
47382;DHT22;33128;51.580;5.170;2023-05-07T14:51:50;20.70;99.90
47382;DHT22;33128;51.580;5.170;2023-05-07T14:54:16;20.70;99.90
47382;DHT22;33128;51.580;5.170;2023-05-07T14:56:41;20.70;99.90
47382;DHT22;33128;51.580;5.170;2023-05-07T14:59:07;20.70;99.90
47382;DHT22;33128;51.580;5.170;2023-05-07T15:01:36;20.80;99.90
47382;DHT22;33128;51.580;5.170;2023-05-07T15:04:05;20.80;99.90
47382;DHT22;33128;51.580;5.170;2023-05-07T15:06:30;20.90;99.90
47382;DHT22;33128;51.580;5.170;2023-05-07T15:08:56;20.90;99.90
47382;DHT22;33128;51.580;5.170;2023-05-07T15:11:22;20.90;99.90
47382;DHT22;33128;51.580;5.170;2023-05-07T15:13:47;20.90;99.90
47382;DHT22;33128;51.580;5.170;2023-05-07T15:16:13;20.90;99.90
47382;DHT22;33128;51.580;5.170;2023-05-07T15:18:38;20.90;99.90
47382;DHT22;33128;51.580;5.170;2023-05-07T15:21:04;20.90;99.90
47382;DHT22;33128;51.580;5.170;2023-05-07T15:23:29;20.90;99.90
47382;DHT22;33128;51.580;5.170;2023-05-07T15:25:55;20.90;99.90
47382;DHT22;33128;51.580;5.170;2023-05-07T15:28:20;20.90;99.90
47382;DHT22;33128;51.580;5.170;2023-05-07T15:30:46;20.80;99.90
47382;DHT22;33128;51.580;5.170;2023-05-07T15:33:11;20.80;99.90
47382;DHT22;33128;51.580;5.170;2023-05-07T15:35:37;20.80;99.90
47382;DHT22;33128;51.580;5.170;2023-05-07T15:38:02;20.70;99.90
47382;DHT22;33128;51.580;5.170;2023-05-07T15:40:28;20.70;99.90
47382;DHT22;33128;51.580;5.170;2023-05-07T15:42:54;20.70;99.90